Time,TemperatureF,DewpointF,PressureIn,WindDirection,WindDirectionDegrees,WindSpeedMPH,WindSpeedGustMPH,Humidity,HourlyPrecipIn,Conditions,Clouds,dailyrainin,SolarRadiationWatts/m^2,SoftwareType,DateUTC
2013-09-22 00:00:00,70.7,69.8,29.72,SSE,150,0.0,0.0,97,0.00,,,0.96,0,Wunderground v.1.15,2013-09-22 04:00:00,
2013-09-22 00:30:00,70.8,69.9,29.72,SSE,150,0.0,0.0,97,0.00,,,0.01,0,Wunderground v.1.15,2013-09-22 04:30:00,
2013-09-22 01:00:00,71.4,70.5,29.71,SSE,148,0.0,0.0,97,0.00,,,0.01,0,Wunderground v.1.15,2013-09-22 05:00:00,
2013-09-22 01:30:00,71.7,70.8,29.70,SE,140,0.0,1.0,97,0.00,,,0.01,0,Wunderground v.1.15,2013-09-22 05:30:00,
2013-09-22 02:00:00,71.7,70.8,29.69,SE,141,0.0,0.0,97,0.00,,,0.01,0,Wunderground v.1.15,2013-09-22 06:00:00,
2013-09-22 02:30:00,71.8,70.9,29.69,ESE,121,1.0,1.0,97,0.00,,,0.01,0,Wunderground v.1.15,2013-09-22 06:30:00,
2013-09-22 03:00:00,72.0,71.1,29.66,ESE,103,1.0,1.0,97,0.00,,,0.01,0,Wunderground v.1.15,2013-09-22 07:00:00,
2013-09-22 03:30:00,72.1,70.9,29.65,East,101,0.0,1.0,96,0.00,,,0.01,0,Wunderground v.1.15,2013-09-22 07:30:00,
2013-09-22 04:00:00,72.2,71.0,29.65,SSW,200,1.0,1.0,96,0.00,,,0.01,0,Wunderground v.1.15,2013-09-22 08:00:00,
2013-09-22 04:30:00,72.1,70.9,29.64,South,180,0.0,0.0,96,0.23,,,0.10,0,Wunderground v.1.15,2013-09-22 08:30:00,
2013-09-22 05:00:00,72.0,71.1,29.65,SW,227,1.0,1.0,97,0.59,,,0.26,0,Wunderground v.1.15,2013-09-22 09:00:00,
2013-09-22 05:30:00,71.3,70.1,29.64,WSW,250,0.0,0.0,96,0.42,,,0.52,0,Wunderground v.1.15,2013-09-22 09:30:00,
2013-09-22 06:00:00,71.2,70.3,29.64,SW,230,0.0,0.0,97,0.19,,,0.68,0,Wunderground v.1.15,2013-09-22 10:00:00,
2013-09-22 06:30:00,71.3,70.4,29.64,SSW,213,0.0,0.0,97,0.00,,,0.68,0,Wunderground v.1.15,2013-09-22 10:30:00,
2013-09-22 07:00:00,71.5,70.6,29.64,SW,220,0.0,0.0,97,0.00,,,0.68,0,Wunderground v.1.15,2013-09-22 11:00:00,
2013-09-22 07:30:00,71.6,70.7,29.65,SW,225,0.0,0.0,97,0.00,,,0.68,26,Wunderground v.1.15,2013-09-22 11:30:00,
2013-09-22 08:00:00,71.6,70.7,29.65,WSW,241,0.0,0.0,97,0.00,,,0.68,65,Wunderground v.1.15,2013-09-22 12:00:00,
2013-09-22 08:30:00,72.3,71.4,29.66,SSW,210,0.0,0.0,97,0.00,,,0.68,58,Wunderground v.1.15,2013-09-22 12:30:00,
2013-09-22 09:00:00,72.2,71.3,29.66,West,278,0.0,0.0,97,0.00,,,0.68,105,Wunderground v.1.15,2013-09-22 13:00:00,
2013-09-22 09:30:00,72.7,71.2,29.66,South,182,1.0,4.0,95,0.00,,,0.68,329,Wunderground v.1.15,2013-09-22 13:30:00,
2013-09-22 10:00:00,73.2,71.1,29.67,West,265,1.0,1.0,93,0.00,,,0.68,153,Wunderground v.1.15,2013-09-22 14:00:00,
2013-09-22 10:30:00,72.5,70.0,29.68,NW,321,0.0,0.0,92,0.00,,,0.68,98,Wunderground v.1.15,2013-09-22 14:30:00,
2013-09-22 11:00:00,72.5,70.0,29.67,West,280,0.0,0.0,92,0.00,,,0.68,234,Wunderground v.1.15,2013-09-22 15:00:00,
2013-09-22 11:30:00,72.9,70.4,29.68,NW,313,0.0,0.0,92,0.00,,,0.68,223,Wunderground v.1.15,2013-09-22 15:30:00,
2013-09-22 12:30:00,71.4,69.6,29.69,NW,319,1.0,1.0,94,0.06,,,0.71,79,Wunderground v.1.15,2013-09-22 16:30:00,
2013-09-22 13:00:00,69.9,68.4,29.69,NNE,23,1.0,1.0,95,0.00,,,0.72,120,Wunderground v.1.15,2013-09-22 17:00:00,
2013-09-22 13:30:00,69.8,68.6,29.69,North,5,2.0,3.0,96,0.00,,,0.72,130,Wunderground v.1.15,2013-09-22 17:30:00,
2013-09-22 14:00:00,69.7,68.2,29.70,North,351,2.0,2.0,95,0.00,,,0.73,105,Wunderground v.1.15,2013-09-22 18:00:00,
2013-09-22 14:30:00,69.1,67.6,29.70,NNE,31,2.0,5.0,95,0.00,,,0.73,146,Wunderground v.1.15,2013-09-22 18:30:00,
2013-09-22 15:00:00,69.1,67.9,29.69,NNE,13,1.0,4.0,96,0.00,,,0.73,120,Wunderground v.1.15,2013-09-22 19:00:00,
2013-09-22 15:30:00,68.9,67.7,29.70,NW,307,2.0,4.0,96,0.00,,,0.73,118,Wunderground v.1.15,2013-09-22 19:30:00,
2013-09-22 16:00:00,68.8,67.6,29.71,North,5,1.0,1.0,96,0.00,,,0.73,100,Wunderground v.1.15,2013-09-22 20:00:00,
2013-09-22 16:30:00,69.0,67.5,29.71,NE,44,1.0,1.0,95,0.00,,,0.73,176,Wunderground v.1.15,2013-09-22 20:30:00,
2013-09-22 17:00:00,69.4,67.3,29.72,NW,323,1.0,4.0,93,0.00,,,0.73,69,Wunderground v.1.15,2013-09-22 21:00:00,
2013-09-22 17:30:00,69.4,67.6,29.73,NW,319,1.0,1.0,94,0.00,,,0.73,77,Wunderground v.1.15,2013-09-22 21:30:00,
2013-09-22 18:00:00,69.2,67.4,29.74,North,351,1.0,2.0,94,0.00,,,0.73,58,Wunderground v.1.15,2013-09-22 22:00:00,
2013-09-22 18:30:00,69.1,66.7,29.74,North,5,2.0,2.0,92,0.00,,,0.73,26,Wunderground v.1.15,2013-09-22 22:30:00,
2013-09-22 19:00:00,68.8,66.4,29.75,North,5,1.0,1.0,92,0.00,,,0.73,7,Wunderground v.1.15,2013-09-22 23:00:00,
2013-09-22 19:30:00,68.5,66.4,29.76,North,360,0.0,0.0,93,0.00,,,0.73,0,Wunderground v.1.15,2013-09-22 23:30:00,
2013-09-22 20:00:00,68.3,66.5,29.77,North,360,0.0,0.0,94,0.00,,,0.73,0,Wunderground v.1.15,2013-09-23 00:00:00,
2013-09-22 20:30:00,68.1,66.6,29.78,North,360,0.0,0.0,95,0.00,,,0.73,0,Wunderground v.1.15,2013-09-23 00:30:00,
2013-09-22 21:00:00,67.7,66.2,29.78,North,360,0.0,0.0,95,0.00,,,0.73,0,Wunderground v.1.15,2013-09-23 01:00:00,
2013-09-22 21:30:00,67.4,65.9,29.79,North,360,0.0,0.0,95,0.00,,,0.73,0,Wunderground v.1.15,2013-09-23 01:30:00,
2013-09-22 22:00:00,67.2,65.7,29.81,NNW,332,0.0,0.0,95,0.00,,,0.73,0,Wunderground v.1.15,2013-09-23 02:00:00,
2013-09-22 22:30:00,66.6,64.8,29.82,NNW,333,0.0,0.0,94,0.00,,,0.73,0,Wunderground v.1.15,2013-09-23 02:30:00,
2013-09-22 23:00:00,65.2,63.7,29.83,NNW,328,0.0,0.0,95,0.00,,,0.73,0,Wunderground v.1.15,2013-09-23 03:00:00,
2013-09-22 23:30:00,63.7,62.2,29.84,NNW,328,0.0,0.0,95,0.00,,,0.73,0,Wunderground v.1.15,2013-09-23 03:30:00,